createdAt,value
2023-05-01T00:01:13.622Z,2.20
2023-05-01T00:03:41.360Z,2.20
2023-05-01T00:06:09.538Z,2.53
2023-05-01T00:08:37.199Z,2.50
2023-05-01T00:11:05.339Z,2.40
2023-05-01T00:13:33.944Z,2.15
2023-05-01T00:16:01.752Z,2.25
2023-05-01T00:18:31.200Z,2.97
2023-05-01T00:20:58.971Z,2.45
2023-05-01T00:23:26.730Z,2.33
2023-05-01T00:25:54.600Z,2.67
2023-05-01T00:28:22.327Z,2.17
2023-05-01T00:30:50.038Z,2.80
2023-05-01T00:33:17.724Z,2.70
2023-05-01T00:35:45.862Z,2.60
2023-05-01T00:38:13.699Z,2.70
2023-05-01T00:40:45.577Z,2.67
2023-05-01T00:43:14.883Z,2.63
2023-05-01T00:45:43.932Z,2.55
2023-05-01T00:48:11.763Z,2.42
2023-05-01T00:50:39.521Z,2.35
2023-05-01T00:53:07.260Z,2.50
2023-05-01T00:55:35.981Z,2.50
2023-05-01T00:58:03.681Z,2.78
2023-05-01T01:00:31.427Z,2.43
2023-05-01T01:02:59.128Z,2.17
2023-05-01T01:05:27.682Z,2.63
2023-05-01T01:08:14.092Z,2.57
2023-05-01T01:10:50.562Z,2.75
2023-05-01T01:13:31.357Z,2.28
2023-05-01T01:16:07.345Z,2.80
2023-05-01T01:18:58.094Z,3.17
2023-05-01T01:21:29.077Z,2.65
2023-05-01T01:24:15.314Z,2.50
2023-05-01T01:26:53.464Z,2.27
2023-05-01T01:29:39.188Z,2.78
2023-05-01T01:32:06.828Z,2.40
2023-05-01T01:34:35.683Z,2.63
2023-05-01T01:37:04.847Z,2.50
2023-05-01T01:39:47.167Z,2.05
2023-05-01T01:42:16.661Z,2.63
2023-05-01T01:44:45.846Z,2.30
2023-05-01T01:47:13.529Z,2.70
2023-05-01T01:49:41.794Z,2.45
2023-05-01T01:52:09.380Z,2.70
2023-05-01T01:54:38.877Z,2.97
2023-05-01T01:57:07.927Z,2.60
2023-05-01T01:59:35.629Z,2.70
2023-05-01T02:02:03.621Z,2.45
2023-05-01T02:04:31.330Z,2.55
2023-05-01T02:06:59.082Z,2.72
2023-05-01T02:09:27.204Z,2.27
2023-05-01T02:11:56.078Z,3.08
2023-05-01T02:14:23.994Z,2.25
2023-05-01T02:16:51.588Z,2.47
2023-05-01T02:19:19.252Z,1.90
2023-05-01T02:21:46.938Z,2.40
2023-05-01T02:24:14.591Z,2.97
2023-05-01T02:26:46.100Z,2.40
2023-05-01T02:29:13.622Z,2.38
2023-05-01T02:31:41.501Z,2.10
2023-05-01T02:34:09.157Z,2.43
2023-05-01T02:36:36.735Z,2.47
2023-05-01T02:39:04.569Z,2.00
2023-05-01T02:41:32.259Z,2.17
2023-05-01T02:44:01.938Z,2.60
2023-05-01T02:46:29.572Z,2.58
2023-05-01T02:48:57.154Z,2.43
2023-05-01T02:51:24.694Z,2.42
2023-05-01T02:53:52.262Z,2.47
2023-05-01T02:56:19.844Z,2.50
2023-05-01T02:58:49.601Z,2.63
2023-05-01T03:01:17.453Z,2.50
2023-05-01T03:03:45.038Z,2.85
2023-05-01T03:06:14.466Z,2.17
2023-05-01T03:08:42.339Z,2.42
2023-05-01T03:11:10.008Z,2.45
2023-05-01T03:13:37.728Z,2.50
2023-05-01T03:16:06.424Z,2.22
2023-05-01T03:18:34.255Z,2.55
2023-05-01T03:21:01.858Z,2.20
2023-05-01T03:23:29.400Z,2.07
2023-05-01T03:25:57.611Z,2.78
2023-05-01T03:28:25.410Z,2.38
2023-05-01T03:30:53.161Z,2.47
2023-05-01T03:33:20.702Z,2.28
2023-05-01T03:35:48.725Z,2.70
2023-05-01T03:38:16.475Z,2.73
2023-05-01T03:40:44.469Z,2.65
2023-05-01T03:43:12.018Z,2.38
2023-05-01T03:45:39.751Z,2.35
2023-05-01T03:48:07.393Z,1.93
2023-05-01T03:50:35.124Z,2.65
2023-05-01T03:53:02.721Z,2.60
2023-05-01T03:55:30.654Z,2.93
2023-05-01T03:57:58.793Z,2.53
2023-05-01T04:00:27.654Z,2.30
2023-05-01T04:02:56.941Z,2.67
2023-05-01T04:05:24.765Z,2.72
2023-05-01T04:07:52.481Z,2.88
2023-05-01T04:10:20.095Z,3.03
2023-05-01T04:12:47.667Z,2.60
2023-05-01T04:15:15.726Z,2.65
2023-05-01T04:17:46.988Z,2.58
2023-05-01T04:20:16.634Z,2.37
2023-05-01T04:22:44.235Z,2.55
2023-05-01T04:25:11.976Z,2.72
2023-05-01T04:27:39.543Z,2.93
2023-05-01T04:30:07.632Z,2.55
2023-05-01T04:32:35.725Z,3.10
2023-05-01T04:35:04.911Z,3.03
2023-05-01T04:37:32.487Z,3.20
2023-05-01T04:40:00.975Z,2.67
2023-05-01T04:42:34.384Z,2.50
2023-05-01T04:45:04.356Z,2.77
2023-05-01T04:47:32.032Z,3.30
2023-05-01T04:49:59.650Z,3.00
2023-05-01T04:52:27.219Z,2.50
2023-05-01T04:54:54.784Z,2.70
2023-05-01T04:57:22.465Z,2.70
2023-05-01T04:59:50.198Z,2.75
2023-05-01T05:02:19.464Z,3.03
2023-05-01T05:04:47.163Z,2.55
2023-05-01T05:07:14.809Z,3.17
2023-05-01T05:09:42.439Z,2.80
2023-05-01T05:12:10.088Z,3.08
2023-05-01T05:14:37.614Z,3.33
2023-05-01T05:17:06.370Z,3.37
2023-05-01T05:19:34.400Z,3.42
2023-05-01T05:22:04.807Z,3.00
2023-05-01T05:24:32.701Z,3.38
2023-05-01T05:27:00.498Z,3.17
2023-05-01T05:29:28.067Z,3.10
2023-05-01T05:31:57.824Z,3.08
2023-05-01T05:34:25.617Z,3.63
2023-05-01T05:36:53.150Z,4.05
2023-05-01T05:39:23.745Z,3.47
2023-05-01T05:41:53.879Z,3.47
2023-05-01T05:44:21.548Z,3.00
2023-05-01T05:46:49.098Z,2.97
2023-05-01T05:49:16.721Z,3.17
2023-05-01T05:51:44.230Z,3.23
2023-05-01T05:54:11.822Z,3.22
2023-05-01T05:56:39.323Z,4.00
2023-05-01T05:59:07.095Z,2.80
2023-05-01T06:01:34.680Z,3.20
2023-05-01T06:04:02.275Z,3.40
2023-05-01T06:06:30.102Z,3.13
2023-05-01T06:08:57.962Z,3.60
2023-05-01T06:11:26.154Z,4.05
2023-05-01T06:13:54.491Z,3.60
2023-05-01T06:16:22.413Z,2.70
2023-05-01T06:18:49.917Z,3.45
2023-05-01T06:21:17.606Z,3.58
2023-05-01T06:23:45.160Z,3.33
2023-05-01T06:26:12.914Z,2.97
2023-05-01T06:28:40.637Z,3.25
2023-05-01T06:31:08.328Z,3.57
2023-05-01T06:33:35.846Z,3.10
2023-05-01T06:36:03.408Z,3.38
2023-05-01T06:38:32.938Z,3.63
2023-05-01T06:41:00.539Z,3.63
2023-05-01T06:43:30.700Z,3.30
2023-05-01T06:45:58.468Z,3.40
2023-05-01T06:48:26.037Z,3.20
2023-05-01T06:50:53.599Z,3.03
2023-05-01T06:53:21.169Z,2.88
2023-05-01T06:55:48.710Z,2.90
2023-05-01T06:58:24.029Z,3.20
2023-05-01T07:00:52.254Z,3.30
2023-05-01T07:03:19.970Z,3.38
2023-05-01T07:05:47.562Z,2.90
2023-05-01T07:08:15.231Z,2.75
2023-05-01T07:10:42.851Z,3.10
2023-05-01T07:13:10.439Z,3.07
2023-05-01T07:15:38.146Z,3.35
2023-05-01T07:18:06.357Z,3.10
2023-05-01T07:20:34.980Z,3.40
2023-05-01T07:23:03.844Z,3.22
2023-05-01T07:25:32.568Z,3.63
2023-05-01T07:28:01.910Z,3.15
2023-05-01T07:30:30.551Z,3.00
2023-05-01T07:32:59.049Z,3.05
2023-05-01T07:35:26.648Z,3.30
2023-05-01T07:37:55.146Z,3.13
2023-05-01T07:40:22.712Z,2.80
2023-05-01T07:42:52.353Z,3.15
2023-05-01T07:45:21.413Z,2.70
2023-05-01T07:47:49.729Z,2.85
2023-05-01T07:50:17.501Z,2.88
2023-05-01T07:52:45.541Z,2.92
2023-05-01T07:55:13.250Z,2.87
2023-05-01T07:57:40.845Z,2.85
2023-05-01T08:00:08.956Z,2.72
2023-05-01T08:02:37.727Z,2.60
2023-05-01T08:05:05.617Z,3.10
2023-05-01T08:07:33.228Z,2.78
2023-05-01T08:10:01.267Z,2.60
2023-05-01T08:12:29.854Z,2.88
2023-05-01T08:14:57.382Z,2.58
2023-05-01T08:17:25.094Z,3.05
2023-05-01T08:19:56.718Z,2.43
2023-05-01T08:22:24.812Z,2.80
2023-05-01T08:24:53.313Z,2.92
2023-05-01T08:27:20.908Z,2.53
2023-05-01T08:29:48.413Z,2.85
2023-05-01T08:32:16.266Z,2.00
2023-05-01T08:34:43.828Z,2.50
2023-05-01T08:37:11.475Z,2.13
2023-05-01T08:39:39.003Z,2.40
2023-05-01T08:42:06.716Z,2.58
2023-05-01T08:44:34.222Z,2.70
2023-05-01T08:47:08.413Z,2.08
2023-05-01T08:49:36.322Z,1.98
2023-05-01T08:52:06.668Z,2.10
2023-05-01T08:54:35.028Z,2.17
2023-05-01T08:57:03.772Z,2.65
2023-05-01T08:59:37.388Z,2.38
2023-05-01T09:02:05.963Z,2.17
2023-05-01T09:04:34.062Z,1.90
2023-05-01T09:07:02.184Z,2.20
2023-05-01T09:09:30.070Z,2.33
2023-05-01T09:11:58.315Z,2.20
2023-05-01T09:14:26.100Z,2.08
2023-05-01T09:16:56.993Z,2.42
2023-05-01T09:19:24.568Z,2.20
2023-05-01T09:21:52.137Z,1.95
2023-05-01T09:24:19.686Z,1.85
2023-05-01T09:26:50.198Z,1.40
2023-05-01T09:29:38.223Z,1.70
2023-05-01T09:32:20.641Z,1.95
2023-05-01T09:34:49.293Z,1.63
2023-05-01T09:37:32.663Z,1.80
2023-05-01T09:40:12.852Z,1.70
2023-05-01T09:42:49.294Z,2.33
2023-05-01T09:45:17.010Z,2.27
2023-05-01T09:47:44.917Z,1.98
2023-05-01T09:50:13.900Z,1.50
2023-05-01T09:52:41.527Z,1.70
2023-05-01T09:55:19.164Z,1.58
2023-05-01T09:57:47.182Z,1.83
2023-05-01T10:00:15.574Z,1.13
2023-05-01T10:02:44.411Z,1.25
2023-05-01T10:05:12.313Z,2.03
2023-05-01T10:07:40.026Z,1.40
2023-05-01T10:10:20.446Z,2.03
2023-05-01T10:12:48.126Z,2.20
2023-05-01T10:15:24.731Z,2.10
2023-05-01T10:17:54.382Z,2.37
2023-05-01T10:20:22.510Z,2.42
2023-05-01T10:22:50.548Z,2.38
2023-05-01T10:25:18.236Z,2.60
2023-05-01T10:27:46.146Z,2.10
2023-05-01T10:30:13.862Z,1.77
2023-05-01T10:32:42.511Z,1.98
2023-05-01T10:35:14.952Z,1.80
2023-05-01T10:37:47.574Z,1.60
2023-05-01T10:40:33.681Z,1.55
2023-05-01T10:43:13.960Z,1.20
2023-05-01T10:45:41.621Z,1.60
2023-05-01T10:48:09.804Z,1.55
2023-05-01T10:50:57.781Z,1.65
2023-05-01T10:53:28.227Z,1.52
2023-05-01T10:55:55.988Z,1.40
2023-05-01T10:58:38.882Z,1.08
2023-05-01T11:01:25.019Z,1.43
2023-05-01T11:03:54.987Z,1.23
2023-05-01T11:06:25.897Z,1.23
2023-05-01T11:08:53.772Z,1.50
2023-05-01T11:11:21.545Z,1.10
2023-05-01T11:13:58.077Z,1.30
2023-05-01T11:16:42.118Z,1.52
2023-05-01T11:19:11.815Z,1.60
2023-05-01T11:21:42.233Z,1.30
2023-05-01T11:24:10.146Z,1.13
2023-05-01T11:26:42.390Z,0.80
2023-05-01T11:29:10.890Z,0.88
2023-05-01T11:31:38.904Z,0.88
2023-05-01T11:34:09.404Z,1.07
2023-05-01T11:36:49.641Z,0.85
2023-05-01T11:39:17.879Z,1.00
2023-05-01T11:41:45.650Z,1.13
2023-05-01T11:44:13.930Z,1.50
2023-05-01T11:46:41.621Z,1.10
2023-05-01T11:49:09.696Z,1.30
2023-05-01T11:51:37.352Z,1.40
2023-05-01T11:54:09.605Z,1.50
2023-05-01T11:56:37.861Z,1.88
2023-05-01T11:59:12.278Z,1.40
2023-05-01T12:01:44.503Z,1.50
2023-05-01T12:04:12.522Z,1.70
2023-05-01T12:06:46.694Z,1.70
2023-05-01T12:09:20.355Z,1.77
2023-05-01T12:11:51.193Z,2.20
2023-05-01T12:14:20.086Z,2.58
2023-05-01T12:16:47.608Z,2.67
2023-05-01T12:19:15.584Z,2.30
2023-05-01T12:21:43.206Z,2.30
2023-05-01T12:24:16.182Z,2.50
2023-05-01T12:26:44.259Z,2.22
2023-05-01T12:29:11.939Z,2.42
2023-05-01T12:31:49.195Z,2.05
2023-05-01T12:34:16.956Z,1.80
2023-05-01T12:36:46.912Z,1.75
2023-05-01T12:39:14.732Z,1.77
2023-05-01T12:41:49.068Z,1.70
2023-05-01T12:44:20.182Z,2.00
2023-05-01T12:46:53.923Z,1.90
2023-05-01T12:49:21.835Z,1.90
2023-05-01T12:51:49.816Z,2.40
2023-05-01T12:54:23.688Z,1.65
2023-05-01T12:56:53.503Z,1.80
2023-05-01T12:59:24.428Z,1.50
2023-05-01T13:02:01.121Z,1.50
2023-05-01T13:04:29.087Z,1.50
2023-05-01T13:06:57.182Z,1.53
2023-05-01T13:09:27.158Z,1.40
2023-05-01T13:11:58.787Z,1.67
2023-05-01T13:14:26.498Z,1.60
2023-05-01T13:16:54.833Z,1.67
2023-05-01T13:19:28.919Z,1.80
2023-05-01T13:21:58.104Z,1.55
2023-05-01T13:24:26.692Z,1.77
2023-05-01T13:26:59.538Z,1.30
2023-05-01T13:29:27.114Z,1.40
2023-05-01T13:31:55.129Z,1.30
2023-05-01T13:34:30.479Z,1.60
2023-05-01T13:36:58.472Z,1.05
2023-05-01T13:39:26.168Z,1.30
2023-05-01T13:41:53.919Z,1.20
2023-05-01T13:44:21.936Z,1.40
2023-05-01T13:46:51.267Z,1.38
2023-05-01T13:49:19.023Z,1.33
2023-05-01T13:51:47.502Z,1.85
2023-05-01T13:54:15.304Z,1.15
2023-05-01T13:56:43.195Z,1.40
2023-05-01T13:59:10.894Z,0.90
2023-05-01T14:01:43.130Z,1.20
2023-05-01T14:04:11.746Z,1.37
2023-05-01T14:06:43.586Z,1.10
2023-05-01T14:09:11.314Z,1.10
2023-05-01T14:11:46.856Z,1.30
2023-05-01T14:14:17.768Z,1.15
2023-05-01T14:16:49.060Z,5.43
2023-05-01T14:19:20.269Z,2.03
2023-05-01T14:21:47.821Z,1.50
2023-05-01T14:24:18.267Z,2.22
2023-05-01T14:26:46.216Z,2.03
2023-05-01T14:29:18.153Z,2.20
2023-05-01T14:31:45.896Z,3.55
2023-05-01T14:34:13.694Z,2.85
2023-05-01T14:36:43.568Z,2.63
2023-05-01T14:39:13.418Z,2.67
2023-05-01T14:41:41.486Z,2.58
2023-05-01T14:44:12.942Z,2.58
2023-05-01T14:46:46.369Z,2.73
2023-05-01T14:49:21.864Z,2.92
2023-05-01T14:51:49.461Z,3.17
2023-05-01T14:54:17.211Z,3.10
2023-05-01T14:56:44.914Z,3.38
2023-05-01T14:59:13.614Z,3.55
2023-05-01T15:01:41.477Z,3.92
2023-05-01T15:04:11.879Z,3.92
2023-05-01T15:06:39.655Z,3.80
2023-05-01T15:09:07.365Z,3.70
2023-05-01T15:11:34.973Z,4.00
2023-05-01T15:14:02.685Z,3.60
2023-05-01T15:16:30.867Z,3.90
2023-05-01T15:18:58.857Z,3.87
2023-05-01T15:21:26.476Z,3.95
2023-05-01T15:23:54.290Z,4.57
2023-05-01T15:26:21.922Z,4.30
2023-05-01T15:28:50.718Z,4.65
2023-05-01T15:31:19.388Z,6.00
2023-05-01T15:33:47.005Z,4.65
2023-05-01T15:36:14.538Z,5.07
2023-05-01T15:38:42.222Z,4.55
2023-05-01T15:41:09.762Z,5.07
2023-05-01T15:43:37.774Z,5.57
2023-05-01T15:46:06.143Z,4.55
2023-05-01T15:48:33.924Z,4.68
2023-05-01T15:51:01.684Z,5.20
2023-05-01T15:53:29.239Z,5.07
2023-05-01T15:55:58.081Z,5.00
2023-05-01T15:58:25.725Z,6.03
2023-05-01T16:00:56.045Z,5.37
2023-05-01T16:03:24.402Z,4.38
2023-05-01T16:05:52.671Z,3.97
2023-05-01T16:08:21.122Z,4.13
2023-05-01T16:10:48.756Z,3.50
2023-05-01T16:13:16.313Z,2.92
2023-05-01T16:15:43.881Z,3.13
2023-05-01T16:18:16.446Z,3.88
2023-05-01T16:20:44.230Z,3.70
2023-05-01T16:23:12.578Z,3.88
2023-05-01T16:25:43.051Z,4.43
2023-05-01T16:28:10.755Z,4.05
2023-05-01T16:30:41.911Z,5.03
2023-05-01T16:33:18.788Z,4.73
2023-05-01T16:35:48.064Z,4.95
2023-05-01T16:38:16.054Z,5.07
2023-05-01T16:40:44.052Z,5.07
2023-05-01T16:43:11.652Z,4.97
2023-05-01T16:45:39.277Z,5.72
2023-05-01T16:48:07.095Z,5.82
2023-05-01T16:50:34.773Z,5.93
2023-05-01T16:53:02.639Z,6.35
2023-05-01T16:55:30.367Z,5.47
2023-05-01T16:57:58.037Z,6.10
2023-05-01T17:00:29.363Z,5.95
2023-05-01T17:02:59.035Z,5.75
2023-05-01T17:05:27.002Z,5.97
2023-05-01T17:07:54.881Z,6.70
2023-05-01T17:10:22.494Z,6.75
2023-05-01T17:12:50.024Z,6.88
2023-05-01T17:15:18.325Z,7.27
2023-05-01T17:17:46.191Z,6.15
2023-05-01T17:20:17.686Z,6.28
2023-05-01T17:22:45.756Z,6.53
2023-05-01T17:25:13.571Z,7.13
2023-05-01T17:27:41.371Z,7.65
2023-05-01T17:30:14.699Z,6.43
2023-05-01T17:32:44.510Z,6.57
2023-05-01T17:35:12.817Z,6.60
2023-05-01T17:37:41.138Z,5.22
2023-05-01T17:40:15.102Z,4.60
2023-05-01T17:42:44.900Z,5.47
2023-05-01T17:45:15.123Z,5.20
2023-05-01T17:47:45.876Z,5.30
2023-05-01T17:50:15.017Z,5.57
2023-05-01T17:53:03.189Z,5.22
2023-05-01T17:55:31.192Z,6.07
2023-05-01T17:58:02.019Z,6.53
2023-05-01T18:00:33.663Z,6.85
2023-05-01T18:03:01.628Z,6.75
2023-05-01T18:05:30.514Z,6.00
2023-05-01T18:08:03.342Z,5.97
2023-05-01T18:10:31.490Z,6.55
2023-05-01T18:13:03.911Z,5.73
2023-05-01T18:15:32.305Z,5.90
2023-05-01T18:18:07.070Z,6.60
2023-05-01T18:20:34.869Z,6.63
2023-05-01T18:23:03.620Z,7.47
2023-05-01T18:25:36.433Z,7.72
2023-05-01T18:28:04.252Z,8.05
2023-05-01T18:30:32.886Z,8.83
2023-05-01T18:33:05.140Z,7.85
2023-05-01T18:35:33.105Z,7.13
2023-05-01T18:38:00.896Z,8.13
2023-05-01T18:40:28.470Z,6.90
2023-05-01T18:42:56.321Z,7.82
2023-05-01T18:45:24.989Z,7.45
2023-05-01T18:47:53.041Z,7.35
2023-05-01T18:50:24.340Z,7.68
2023-05-01T18:52:56.326Z,7.75
2023-05-01T18:55:25.388Z,7.27
2023-05-01T18:58:04.153Z,8.60
2023-05-01T19:00:34.860Z,8.55
2023-05-01T19:03:02.720Z,8.47
2023-05-01T19:05:30.828Z,9.05
2023-05-01T19:08:02.060Z,9.63
2023-05-01T19:10:36.708Z,8.83
2023-05-01T19:13:08.247Z,10.13
2023-05-01T19:15:38.190Z,9.68
2023-05-01T19:18:06.000Z,10.07
2023-05-01T19:20:39.168Z,9.97
2023-05-01T19:23:07.775Z,9.60
2023-05-01T19:25:36.667Z,10.18
2023-05-01T19:28:04.690Z,9.10
2023-05-01T19:30:32.593Z,9.35
2023-05-01T19:33:00.943Z,8.57
2023-05-01T19:35:30.487Z,9.13
2023-05-01T19:37:59.263Z,8.52
2023-05-01T19:40:27.160Z,8.60
2023-05-01T19:42:57.894Z,8.57
2023-05-01T19:45:29.855Z,9.00
2023-05-01T19:47:59.077Z,9.60
2023-05-01T19:50:27.271Z,8.93
2023-05-01T19:53:01.047Z,9.00
2023-05-01T19:55:33.209Z,9.38
2023-05-01T19:58:00.849Z,9.60
2023-05-01T20:00:28.387Z,10.10
2023-05-01T20:02:56.144Z,9.20
2023-05-01T20:05:28.178Z,9.45
2023-05-01T20:07:57.368Z,8.95
2023-05-01T20:10:25.718Z,8.53
2023-05-01T20:12:53.231Z,8.70
2023-05-01T20:15:20.767Z,8.95
2023-05-01T20:17:51.278Z,9.20
2023-05-01T20:20:21.973Z,8.57
2023-05-01T20:22:52.235Z,8.95
2023-05-01T20:25:19.795Z,8.17
2023-05-01T20:27:47.325Z,8.38
2023-05-01T20:30:14.961Z,7.43
2023-05-01T20:32:44.419Z,7.35
2023-05-01T20:35:12.178Z,6.57
2023-05-01T20:37:39.882Z,6.97
2023-05-01T20:40:07.836Z,6.47
2023-05-01T20:42:35.394Z,5.90
2023-05-01T20:45:02.978Z,5.70
2023-05-01T20:47:32.343Z,5.72
2023-05-01T20:50:00.594Z,5.00
2023-05-01T20:52:28.408Z,5.90
2023-05-01T20:54:56.059Z,5.10
2023-05-01T20:57:23.748Z,5.28
2023-05-01T20:59:51.625Z,5.50
2023-05-01T21:02:19.175Z,6.20
2023-05-01T21:04:46.731Z,6.60
2023-05-01T21:07:14.346Z,5.50
2023-05-01T21:09:45.798Z,5.45
2023-05-01T21:12:13.521Z,5.07
2023-05-01T21:14:41.140Z,4.73
2023-05-01T21:17:11.380Z,4.15
2023-05-01T21:19:45.997Z,4.43
2023-05-01T21:22:17.228Z,4.22
2023-05-01T21:24:45.481Z,4.47
2023-05-01T21:27:13.197Z,4.22
2023-05-01T21:29:40.939Z,4.75
2023-05-01T21:32:08.967Z,5.27
2023-05-01T21:34:36.551Z,4.82
2023-05-01T21:37:04.499Z,4.88
2023-05-01T21:39:32.120Z,5.00
2023-05-01T21:41:59.783Z,5.55
2023-05-01T21:44:29.394Z,5.88
2023-05-01T21:46:57.783Z,5.57
2023-05-01T21:49:26.994Z,4.90
2023-05-01T21:51:54.914Z,4.60
2023-05-01T21:54:22.519Z,4.30
2023-05-01T21:56:50.123Z,4.47
2023-05-01T21:59:18.418Z,4.35
2023-05-01T22:01:46.038Z,4.43
2023-05-01T22:04:16.762Z,4.60
2023-05-01T22:06:44.587Z,4.60
2023-05-01T22:09:12.620Z,3.72
2023-05-01T22:11:40.250Z,3.50
2023-05-01T22:14:07.902Z,3.40
2023-05-01T22:16:35.435Z,4.05
2023-05-01T22:19:03.687Z,3.72
2023-05-01T22:21:31.987Z,4.73
2023-05-01T22:23:59.690Z,4.50
2023-05-01T22:26:27.350Z,4.53
2023-05-01T22:28:54.904Z,5.30
2023-05-01T22:31:22.520Z,5.05
2023-05-01T22:33:50.147Z,4.85
2023-05-01T22:36:17.745Z,4.72
2023-05-01T22:38:45.446Z,4.50
2023-05-01T22:41:13.077Z,4.30
2023-05-01T22:43:40.670Z,3.95
2023-05-01T22:46:08.375Z,3.47
2023-05-01T22:48:36.974Z,3.67
2023-05-01T22:51:04.581Z,3.30
2023-05-01T22:53:32.557Z,2.73
2023-05-01T22:56:00.064Z,2.95
2023-05-01T22:58:28.382Z,3.30
2023-05-01T23:00:55.926Z,2.50
2023-05-01T23:03:23.764Z,2.53
2023-05-01T23:05:51.492Z,2.72
2023-05-01T23:08:19.159Z,1.65
2023-05-01T23:10:46.749Z,1.70
2023-05-01T23:13:22.221Z,2.10
2023-05-01T23:15:53.375Z,2.65
2023-05-01T23:18:25.010Z,4.07
2023-05-01T23:20:52.926Z,3.30
2023-05-01T23:23:21.517Z,3.53
2023-05-01T23:25:50.382Z,2.78
2023-05-01T23:28:22.249Z,2.73
2023-05-01T23:30:51.961Z,1.90
2023-05-01T23:33:21.518Z,1.70
2023-05-01T23:35:49.321Z,1.20
2023-05-01T23:38:16.985Z,1.80
2023-05-01T23:40:47.672Z,1.50
2023-05-01T23:43:15.817Z,2.10
2023-05-01T23:45:43.661Z,2.10
2023-05-01T23:48:11.373Z,1.95
2023-05-01T23:50:42.090Z,2.03
2023-05-01T23:53:09.761Z,1.70
2023-05-01T23:55:38.415Z,1.90
2023-05-01T23:58:06.808Z,2.10
